Time;durP1;ratioP1;P1;durP2;ratioP2;P2;SDS_P1;SDS_P2;PMS_P1;PMS_P2;Temp;Humidity;BMP_temperature;BMP_pressure;BME280_temperature;BME280_humidity;BME280_pressure;Samples;Min_cycle;Max_cycle;Signal;HPM_P1;HPM_P2
2022/09/26 00:01:25;;;;;;;;;;;11.70;79.30;;;;;;5015078;28;20387;-79
2022/09/26 00:03:52;;;;;;;;;;;11.70;79.30;;;;;;5012835;28;20318;-80
2022/09/26 00:06:18;;;;;;;;;;;11.60;79.20;;;;;;4998270;28;19914;-80
2022/09/26 00:08:44;;;;;;;;;;;11.70;79.10;;;;;;5013328;28;19920;-80
2022/09/26 00:11:10;;;;;;;;;;;11.60;79.30;;;;;;5014595;28;19917;-80
2022/09/26 00:13:37;;;;;;;;;;;11.60;79.20;;;;;;5006159;28;19917;-80
2022/09/26 00:16:03;;;;;;;;;;;11.60;79.30;;;;;;5009316;28;20340;-80
2022/09/26 00:18:28;;;;;;;;;;;11.50;79.40;;;;;;5010763;28;19913;-81
2022/09/26 00:21:01;;;;;;;;;;;11.60;79.70;;;;;;5010692;28;19914;-80
2022/09/26 00:23:26;;;;;;;;;;;11.60;79.20;;;;;;5013686;28;19913;-80
2022/09/26 00:25:52;;;;;;;;;;;11.60;79.00;;;;;;4993402;28;19941;-79
2022/09/26 00:28:18;;;;;;;;;;;11.60;79.00;;;;;;5015398;28;19913;-80
2022/09/26 00:30:45;;;;;;;;;;;11.60;79.10;;;;;;5011250;28;19941;-81
2022/09/26 00:33:11;;;;;;;;;;;11.50;79.20;;;;;;5013537;28;19917;-80
2022/09/26 00:35:37;;;;;;;;;;;11.50;79.50;;;;;;4992783;28;19922;-80
2022/09/26 00:38:03;;;;;;;;;;;11.50;79.40;;;;;;4996190;28;20430;-80
2022/09/26 00:40:31;;;;;;;;;;;11.50;79.80;;;;;;5014257;28;19977;-79
2022/09/26 00:42:57;;;;;;;;;;;11.50;79.70;;;;;;5009869;28;19964;-80
2022/09/26 00:45:24;;;;;;;;;;;11.50;79.60;;;;;;5012230;28;20496;-80
2022/09/26 00:47:56;;;;;;;;;;;11.40;80.50;;;;;;5010607;28;19928;-79
2022/09/26 00:50:32;;;;;;;;;;;11.50;80.40;;;;;;5010042;28;20332;-78
2022/09/26 00:53:01;;;;;;;;;;;11.50;79.90;;;;;;4992533;28;20270;-79
2022/09/26 00:55:29;;;;;;;;;;;11.50;80.20;;;;;;5013092;28;19924;-79
2022/09/26 00:58:15;;;;;;;;;;;11.50;79.70;;;;;;5010920;28;20024;-79
2022/09/26 01:00:42;;;;;;;;;;;11.50;79.10;;;;;;4986999;28;19918;-79
2022/09/26 01:03:08;;;;;;;;;;;11.50;79.00;;;;;;4995325;28;20561;-79
2022/09/26 01:05:33;;;;;;;;;;;11.40;79.50;;;;;;4992769;28;19913;-80
2022/09/26 01:07:59;;;;;;;;;;;11.40;79.50;;;;;;5009698;28;19914;-80
2022/09/26 01:10:25;;;;;;;;;;;11.40;79.70;;;;;;5002373;28;19920;-79
2022/09/26 01:12:51;;;;;;;;;;;11.40;79.90;;;;;;4991280;28;20020;-79
2022/09/26 01:15:16;;;;;;;;;;;11.40;79.80;;;;;;5011317;28;19956;-79
2022/09/26 01:17:43;;;;;;;;;;;11.30;80.00;;;;;;5017391;28;20003;-80
2022/09/26 01:20:18;;;;;;;;;;;11.30;80.00;;;;;;5015267;28;19914;-80
2022/09/26 01:22:43;;;;;;;;;;;11.40;79.80;;;;;;5011879;28;19921;-80
2022/09/26 01:25:18;;;;;;;;;;;11.40;79.90;;;;;;5016059;28;20329;-79
2022/09/26 01:27:49;;;;;;;;;;;11.40;79.90;;;;;;5011353;28;20370;-80
2022/09/26 01:30:25;;;;;;;;;;;11.50;79.70;;;;;;4994536;28;20451;-80
2022/09/26 01:33:05;;;;;;;;;;;11.60;79.90;;;;;;5000323;28;19913;-80
2022/09/26 01:35:49;;;;;;;;;;;11.60;80.30;;;;;;5012806;28;19918;-80
2022/09/26 01:38:25;;;;;;;;;;;11.60;79.40;;;;;;5017631;28;19921;-80
2022/09/26 01:41:09;;;;;;;;;;;11.60;79.20;;;;;;5012582;28;19922;-79
2022/09/26 01:43:55;;;;;;;;;;;11.70;79.00;;;;;;5014385;28;19929;-80
2022/09/26 01:46:37;;;;;;;;;;;11.70;79.10;;;;;;5014919;28;20464;-80
2022/09/26 01:49:18;;;;;;;;;;;11.80;79.10;;;;;;5013485;28;20400;-79
2022/09/26 01:51:50;;;;;;;;;;;11.70;79.20;;;;;;5013458;28;19914;-80
2022/09/26 01:54:22;;;;;;;;;;;11.70;79.50;;;;;;5014628;28;19913;-80
2022/09/26 01:56:49;;;;;;;;;;;11.60;79.40;;;;;;5014251;28;19917;-80
2022/09/26 01:59:22;;;;;;;;;;;11.70;79.90;;;;;;5015353;28;19964;-81
2022/09/26 02:01:50;;;;;;;;;;;11.70;80.00;;;;;;5002421;28;19981;-80
2022/09/26 02:04:25;;;;;;;;;;;11.70;79.70;;;;;;4999452;28;19952;-80
2022/09/26 02:06:56;;;;;;;;;;;11.70;79.60;;;;;;5014500;28;19924;-80
2022/09/26 02:09:38;;;;;;;;;;;11.70;79.50;;;;;;4995054;28;19956;-79
2022/09/26 02:12:05;;;;;;;;;;;11.80;79.30;;;;;;5002150;28;20459;-80
2022/09/26 02:14:33;;;;;;;;;;;11.90;79.00;;;;;;5010920;28;19917;-80
2022/09/26 02:17:00;;;;;;;;;;;11.90;78.90;;;;;;5017151;28;19917;-80
2022/09/26 02:19:35;;;;;;;;;;;11.80;79.20;;;;;;4996080;28;19967;-80
2022/09/26 02:22:01;;;;;;;;;;;11.80;79.20;;;;;;5007321;28;20320;-80
2022/09/26 02:24:27;;;;;;;;;;;11.80;79.60;;;;;;5016202;28;19968;-80
2022/09/26 02:26:53;;;;;;;;;;;11.80;79.50;;;;;;4997784;28;19913;-80
2022/09/26 02:29:19;;;;;;;;;;;11.80;79.80;;;;;;4999988;28;19920;-80
2022/09/26 02:32:11;;;;;;;;;;;11.80;79.80;;;;;;4998325;28;19945;-81
2022/09/26 02:34:37;;;;;;;;;;;11.80;79.80;;;;;;4998785;28;19917;-80
2022/09/26 02:37:04;;;;;;;;;;;11.90;79.90;;;;;;4999691;28;20421;-80
2022/09/26 02:39:29;;;;;;;;;;;11.90;79.90;;;;;;5014718;28;20525;-81
2022/09/26 02:42:12;;;;;;;;;;;12.00;79.80;;;;;;4998394;28;19968;-80
2022/09/26 02:44:49;;;;;;;;;;;12.00;80.00;;;;;;4996846;28;19967;-81
2022/09/26 02:47:15;;;;;;;;;;;12.00;80.30;;;;;;5013108;28;19976;-80
2022/09/26 02:49:48;;;;;;;;;;;12.10;79.70;;;;;;5016100;28;20333;-80
2022/09/26 02:52:20;;;;;;;;;;;12.00;79.90;;;;;;4992656;28;20497;-81
2022/09/26 02:54:54;;;;;;;;;;;12.10;79.80;;;;;;5008035;28;19968;-80
2022/09/26 02:57:27;;;;;;;;;;;12.10;79.90;;;;;;5013514;28;20372;-80
2022/09/26 03:00:06;;;;;;;;;;;12.10;79.70;;;;;;5013113;28;20008;-80
2022/09/26 03:02:37;;;;;;;;;;;12.10;79.90;;;;;;5012055;28;19975;-80
2022/09/26 03:05:14;;;;;;;;;;;12.10;79.60;;;;;;5017249;28;19910;-80
2022/09/26 03:07:48;;;;;;;;;;;12.10;79.80;;;;;;4998420;28;19920;-80
2022/09/26 03:10:14;;;;;;;;;;;12.00;80.00;;;;;;5003930;28;19968;-80
2022/09/26 03:12:41;;;;;;;;;;;12.00;80.10;;;;;;5013528;28;19921;-80
2022/09/26 03:15:07;;;;;;;;;;;12.10;80.00;;;;;;5015858;28;19918;-80
2022/09/26 03:17:35;;;;;;;;;;;12.10;80.20;;;;;;5014955;28;20001;-80
2022/09/26 03:20:03;;;;;;;;;;;12.10;80.20;;;;;;5004794;28;20273;-80
2022/09/26 03:22:29;;;;;;;;;;;12.10;80.30;;;;;;5014075;28;19928;-80
2022/09/26 03:24:57;;;;;;;;;;;12.20;79.70;;;;;;5012249;28;19937;-79
2022/09/26 03:27:22;;;;;;;;;;;12.10;79.90;;;;;;5034202;28;19984;-79
2022/09/26 03:29:48;;;;;;;;;;;12.10;80.50;;;;;;5034957;28;19898;-79
2022/09/26 03:32:13;;;;;;;;;;;12.10;80.40;;;;;;5024800;28;19901;-79
2022/09/26 03:34:39;;;;;;;;;;;12.10;80.50;;;;;;5003702;28;20356;-79
2022/09/26 03:37:05;;;;;;;;;;;12.00;80.50;;;;;;4994707;28;19914;-79
2022/09/26 03:39:30;;;;;;;;;;;12.00;80.50;;;;;;4998204;28;19957;-79
2022/09/26 03:41:56;;;;;;;;;;;12.00;80.60;;;;;;5010904;28;19920;-79
2022/09/26 03:44:22;;;;;;;;;;;12.00;80.60;;;;;;4995451;28;20008;-80
2022/09/26 03:46:47;;;;;;;;;;;12.10;80.90;;;;;;4991130;28;19921;-80
2022/09/26 03:49:13;;;;;;;;;;;12.00;81.00;;;;;;5022013;28;19917;-79
2022/09/26 03:51:38;;;;;;;;;;;12.00;80.90;;;;;;5011749;28;20429;-79
2022/09/26 03:54:03;;;;;;;;;;;12.00;80.70;;;;;;5029558;28;19920;-79
2022/09/26 03:56:29;;;;;;;;;;;12.00;80.70;;;;;;5017162;28;19913;-79
2022/09/26 03:58:55;;;;;;;;;;;12.10;80.40;;;;;;5008351;28;19996;-79
2022/09/26 04:01:21;;;;;;;;;;;12.10;80.50;;;;;;5014921;28;19918;-79
2022/09/26 04:03:47;;;;;;;;;;;12.10;80.80;;;;;;4989344;28;19992;-80
2022/09/26 04:06:17;;;;;;;;;;;12.00;80.90;;;;;;5012128;28;21845;-79
2022/09/26 04:08:43;;;;;;;;;;;12.10;80.80;;;;;;4993861;28;19929;-79
2022/09/26 04:11:10;;;;;;;;;;;12.00;81.00;;;;;;5013421;28;19921;-79
2022/09/26 04:13:36;;;;;;;;;;;12.00;81.10;;;;;;5013128;28;19913;-80
2022/09/26 04:16:01;;;;;;;;;;;12.00;80.90;;;;;;5012436;28;20570;-79
2022/09/26 04:18:28;;;;;;;;;;;12.10;81.10;;;;;;5009818;28;20394;-79
2022/09/26 04:21:00;;;;;;;;;;;12.10;81.10;;;;;;5011333;28;20393;-79
2022/09/26 04:23:27;;;;;;;;;;;12.00;81.10;;;;;;5011261;28;20019;-79
2022/09/26 04:25:52;;;;;;;;;;;12.00;81.10;;;;;;4993332;28;19925;-79
2022/09/26 04:28:18;;;;;;;;;;;12.00;81.10;;;;;;4999469;28;20369;-79
2022/09/26 04:30:43;;;;;;;;;;;12.10;81.00;;;;;;4992957;28;19914;-79
2022/09/26 04:33:09;;;;;;;;;;;12.10;81.10;;;;;;5010687;28;19920;-80
2022/09/26 04:35:35;;;;;;;;;;;12.00;81.10;;;;;;4995894;28;19961;-79
2022/09/26 04:38:00;;;;;;;;;;;12.00;81.10;;;;;;4992148;28;20334;-80
2022/09/26 04:40:26;;;;;;;;;;;11.90;81.00;;;;;;5013803;28;19913;-80
2022/09/26 04:42:51;;;;;;;;;;;12.00;81.20;;;;;;5012022;28;20289;-80
2022/09/26 04:45:17;;;;;;;;;;;12.00;81.00;;;;;;5012030;28;19921;-80
2022/09/26 04:47:42;;;;;;;;;;;12.00;80.70;;;;;;5012940;28;19964;-80
2022/09/26 04:50:08;;;;;;;;;;;11.90;81.00;;;;;;4994231;28;19914;-80
2022/09/26 04:52:34;;;;;;;;;;;11.90;81.20;;;;;;4995422;28;20983;-80
2022/09/26 04:54:59;;;;;;;;;;;11.90;81.10;;;;;;5024995;28;19918;-79
2022/09/26 04:57:25;;;;;;;;;;;11.80;81.10;;;;;;5034797;28;19913;-79
2022/09/26 04:59:51;;;;;;;;;;;11.80;81.50;;;;;;4999302;28;20012;-79
2022/09/26 05:02:18;;;;;;;;;;;11.80;81.30;;;;;;5011087;28;19928;-79
2022/09/26 05:04:47;;;;;;;;;;;11.80;81.20;;;;;;5012887;28;19965;-79
2022/09/26 05:07:13;;;;;;;;;;;11.80;81.30;;;;;;4997152;28;19921;-79
2022/09/26 05:09:38;;;;;;;;;;;11.80;81.60;;;;;;5012996;28;19917;-79
2022/09/26 05:12:04;;;;;;;;;;;11.80;81.30;;;;;;5032957;28;19914;-79
2022/09/26 05:14:29;;;;;;;;;;;11.80;81.50;;;;;;5009119;28;19924;-79
2022/09/26 05:16:55;;;;;;;;;;;11.80;81.50;;;;;;5004920;28;20305;-80
2022/09/26 05:19:21;;;;;;;;;;;11.70;81.60;;;;;;4993011;28;19927;-79
2022/09/26 05:21:46;;;;;;;;;;;11.80;81.50;;;;;;4994868;28;19917;-79
2022/09/26 05:26:55;;;;;;;;;;;11.70;81.30;;;;;;5002714;28;19929;-79
2022/09/26 05:29:23;;;;;;;;;;;11.80;81.00;;;;;;5010248;28;20292;-80
2022/09/26 05:31:50;;;;;;;;;;;11.80;80.80;;;;;;4991318;28;20396;-79
2022/09/26 05:34:16;;;;;;;;;;;11.80;80.80;;;;;;5003903;28;20016;-79
2022/09/26 05:36:42;;;;;;;;;;;11.80;81.00;;;;;;5017466;28;19972;-83
2022/09/26 05:40:55;;;;;;;;;;;11.80;81.10;;;;;;4998316;28;19921;-80
2022/09/26 05:41:53;;;;;;;;;;;11.80;80.70;;;;;;4999380;28;19922;-80
2022/09/26 05:44:19;;;;;;;;;;;11.80;80.40;;;;;;5006577;28;20096;-80
2022/09/26 05:46:46;;;;;;;;;;;11.90;79.90;;;;;;4996230;28;20285;-79
2022/09/26 05:49:13;;;;;;;;;;;11.80;79.90;;;;;;4986710;28;19925;-80
2022/09/26 05:51:40;;;;;;;;;;;11.80;80.00;;;;;;5003032;28;19983;-80
2022/09/26 05:54:05;;;;;;;;;;;11.70;80.30;;;;;;4988903;28;19924;-80
2022/09/26 05:56:31;;;;;;;;;;;11.70;80.40;;;;;;5005648;28;19921;-80
2022/09/26 05:58:56;;;;;;;;;;;11.70;80.30;;;;;;4985167;28;19922;-81
2022/09/26 06:01:23;;;;;;;;;;;11.70;80.10;;;;;;4989963;28;19914;-80
2022/09/26 06:03:48;;;;;;;;;;;11.70;80.30;;;;;;5018434;28;19996;-80
2022/09/26 06:06:15;;;;;;;;;;;11.90;79.70;;;;;;5014760;28;20004;-79
2022/09/26 06:08:41;;;;;;;;;;;11.80;79.30;;;;;;4994253;28;19971;-79
2022/09/26 06:11:08;;;;;;;;;;;11.90;79.50;;;;;;5013146;28;19913;-80
2022/09/26 06:13:34;;;;;;;;;;;12.00;78.70;;;;;;4997075;28;19921;-79
2022/09/26 06:16:02;;;;;;;;;;;12.00;78.50;;;;;;5019658;28;19924;-79
2022/09/26 06:18:27;;;;;;;;;;;12.10;78.10;;;;;;4997431;28;20079;-80
2022/09/26 06:20:53;;;;;;;;;;;12.10;78.20;;;;;;4997402;28;20401;-80
2022/09/26 06:23:18;;;;;;;;;;;12.20;77.50;;;;;;5009150;28;20427;-79
2022/09/26 06:25:44;;;;;;;;;;;12.20;77.40;;;;;;5012512;28;20297;-79
2022/09/26 06:28:10;;;;;;;;;;;12.20;77.40;;;;;;5016331;28;20003;-80
2022/09/26 06:30:35;;;;;;;;;;;12.30;77.40;;;;;;5014928;28;20601;-80
2022/09/26 06:33:02;;;;;;;;;;;12.30;76.80;;;;;;4994088;28;19922;-80
2022/09/26 06:35:28;;;;;;;;;;;12.30;76.90;;;;;;4998189;28;19917;-79
2022/09/26 06:37:55;;;;;;;;;;;12.40;76.50;;;;;;5004348;28;19921;-79
2022/09/26 06:40:20;;;;;;;;;;;12.50;76.00;;;;;;5004911;28;20016;-79
2022/09/26 06:42:46;;;;;;;;;;;12.60;75.90;;;;;;5019336;28;19952;-79
2022/09/26 06:45:11;;;;;;;;;;;12.50;75.60;;;;;;5015357;28;19924;-79
2022/09/26 06:47:37;;;;;;;;;;;12.60;75.20;;;;;;5002423;28;19914;-79
2022/09/26 06:50:03;;;;;;;;;;;12.70;74.70;;;;;;4998657;28;19921;-79
2022/09/26 06:52:32;;;;;;;;;;;12.60;74.80;;;;;;5016282;28;19944;-79
2022/09/26 06:54:58;;;;;;;;;;;12.70;74.50;;;;;;5009385;28;19980;-77
2022/09/26 06:57:23;;;;;;;;;;;12.80;74.10;;;;;;5009223;28;19913;-80
2022/09/26 06:59:49;;;;;;;;;;;12.80;74.00;;;;;;5007303;28;20278;-77
2022/09/26 07:02:15;;;;;;;;;;;12.60;74.10;;;;;;5016136;28;19917;-77
2022/09/26 07:04:41;;;;;;;;;;;12.60;74.30;;;;;;5001913;28;19918;-79
2022/09/26 07:07:06;;;;;;;;;;;12.60;74.00;;;;;;5010826;28;19928;-79
2022/09/26 07:09:32;;;;;;;;;;;12.60;74.30;;;;;;4992273;28;20912;-79
2022/09/26 07:11:58;;;;;;;;;;;12.60;74.20;;;;;;5005493;28;19929;-79
2022/09/26 07:14:23;;;;;;;;;;;12.70;74.20;;;;;;4991827;28;20013;-79
2022/09/26 07:16:50;;;;;;;;;;;12.70;73.90;;;;;;5006288;28;20409;-78
2022/09/26 07:19:16;;;;;;;;;;;12.80;74.00;;;;;;5010573;28;19913;-78
2022/09/26 07:21:41;;;;;;;;;;;12.80;73.50;;;;;;4999282;28;19924;-80
2022/09/26 07:24:07;;;;;;;;;;;12.80;73.50;;;;;;5008051;28;19913;-79
2022/09/26 07:26:33;;;;;;;;;;;12.80;73.20;;;;;;4989831;28;19917;-78
2022/09/26 07:28:58;;;;;;;;;;;12.80;73.20;;;;;;5008107;28;19921;-78
2022/09/26 07:31:24;;;;;;;;;;;12.90;73.10;;;;;;5012501;28;19957;-78
2022/09/26 07:33:49;;;;;;;;;;;12.90;73.20;;;;;;4998723;28;19949;-77
2022/09/26 07:36:14;;;;;;;;;;;12.90;73.80;;;;;;5002240;28;19932;-78
2022/09/26 07:38:41;;;;;;;;;;;12.90;73.60;;;;;;5011578;28;19917;-79
2022/09/26 07:41:09;;;;;;;;;;;12.80;73.60;;;;;;5018498;28;20388;-79
2022/09/26 07:43:35;;;;;;;;;;;12.90;73.50;;;;;;5009464;28;19980;-79
2022/09/26 07:51:31;;;;;;;;;;;13.00;74.00;;;;;;5014011;28;19936;-78
2022/09/26 07:53:56;;;;;;;;;;;13.10;73.80;;;;;;5025682;28;19913;-79
2022/09/26 07:56:22;;;;;;;;;;;13.00;73.70;;;;;;5028091;28;19918;-79
2022/09/26 07:58:47;;;;;;;;;;;12.90;73.90;;;;;;5014220;28;20064;-79
2022/09/26 08:01:14;;;;;;;;;;;13.00;73.10;;;;;;4990773;28;20027;-78
2022/09/26 08:03:40;;;;;;;;;;;13.00;73.30;;;;;;4996955;28;20477;-79
2022/09/26 08:06:06;;;;;;;;;;;12.90;72.70;;;;;;4996986;28;19917;-79
2022/09/26 08:08:32;;;;;;;;;;;13.00;72.50;;;;;;5005589;28;19956;-79
2022/09/26 08:10:58;;;;;;;;;;;13.00;72.20;;;;;;5013488;28;19909;-79
2022/09/26 08:13:24;;;;;;;;;;;12.90;72.30;;;;;;5010667;28;19909;-78
2022/09/26 08:15:50;;;;;;;;;;;12.90;72.70;;;;;;5013736;28;19917;-80
2022/09/26 08:18:16;;;;;;;;;;;13.00;72.80;;;;;;5016256;28;20356;-79
2022/09/26 08:20:46;;;;;;;;;;;13.00;72.90;;;;;;5023878;28;19917;-78
2022/09/26 08:23:15;;;;;;;;;;;12.90;72.90;;;;;;5005207;28;19917;-79
2022/09/26 08:25:41;;;;;;;;;;;12.80;73.40;;;;;;5003080;28;20057;-79
2022/09/26 08:28:06;;;;;;;;;;;12.80;73.90;;;;;;5011138;28;19973;-79
2022/09/26 08:30:32;;;;;;;;;;;12.80;74.30;;;;;;4997285;28;19917;-78
2022/09/26 08:33:00;;;;;;;;;;;12.80;75.10;;;;;;5013685;28;19980;-81
2022/09/26 08:35:37;;;;;;;;;;;12.80;75.50;;;;;;5028891;22;20516;-78
2022/09/26 08:38:03;;;;;;;;;;;12.80;75.70;;;;;;5030557;28;19967;-78
2022/09/26 08:40:33;;;;;;;;;;;12.80;75.50;;;;;;5031647;28;20288;-77
2022/09/26 08:43:05;;;;;;;;;;;12.90;75.50;;;;;;5011234;28;19996;-77
2022/09/26 08:48:19;;;;;;;;;;;12.80;75.80;;;;;;5035481;28;19959;-79
2022/09/26 08:50:49;;;;;;;;;;;12.80;76.20;;;;;;5028979;28;19913;-79
2022/09/26 08:53:17;;;;;;;;;;;12.70;75.70;;;;;;5015553;28;19913;-77
2022/09/26 08:55:43;;;;;;;;;;;12.60;76.80;;;;;;5039485;28;19925;-77
2022/09/26 08:58:14;;;;;;;;;;;12.60;77.60;;;;;;5015225;28;19909;-79
2022/09/26 09:00:40;;;;;;;;;;;12.60;77.10;;;;;;5012519;28;19953;-79
2022/09/26 09:03:08;;;;;;;;;;;12.60;76.80;;;;;;5010292;28;19916;-77
2022/09/26 09:05:37;;;;;;;;;;;12.60;76.60;;;;;;5015087;28;19987;-79
2022/09/26 09:08:06;;;;;;;;;;;12.50;76.40;;;;;;5038717;28;20075;-79
2022/09/26 09:10:42;;;;;;;;;;;12.50;76.70;;;;;;5021399;28;19944;-77
2022/09/26 09:13:27;;;;;;;;;;;12.50;77.20;;;;;;5027586;28;19927;-78
2022/09/26 09:15:52;;;;;;;;;;;12.50;77.50;;;;;;5015085;28;19935;-78
2022/09/26 09:18:33;;;;;;;;;;;12.50;78.30;;;;;;5029279;28;20397;-77
2022/09/26 09:21:18;;;;;;;;;;;12.50;78.60;;;;;;5006762;28;19913;-78
2022/09/26 09:23:43;;;;;;;;;;;12.50;78.30;;;;;;5025311;28;19909;-77
2022/09/26 09:26:10;;;;;;;;;;;12.60;78.00;;;;;;5027725;28;19919;-77
2022/09/26 09:28:42;;;;;;;;;;;12.50;78.60;;;;;;5014438;28;19935;-77
2022/09/26 09:31:10;;;;;;;;;;;12.40;78.50;;;;;;5024572;28;19943;-78
2022/09/26 09:33:35;;;;;;;;;;;12.40;79.20;;;;;;5022208;28;19913;-79
2022/09/26 09:36:06;;;;;;;;;;;12.40;79.70;;;;;;5025607;28;20392;-79
2022/09/26 09:38:33;;;;;;;;;;;12.40;80.20;;;;;;5022965;28;20012;-77
2022/09/26 09:41:01;;;;;;;;;;;12.50;80.10;;;;;;5035114;28;19921;-78
2022/09/26 09:43:30;;;;;;;;;;;12.40;80.70;;;;;;5032739;28;19914;-79
2022/09/26 09:46:00;;;;;;;;;;;12.30;80.80;;;;;;5029182;28;19917;-79
2022/09/26 09:48:26;;;;;;;;;;;12.30;81.20;;;;;;5011885;28;19929;-79
2022/09/26 09:51:00;;;;;;;;;;;12.40;81.30;;;;;;5041642;28;19917;-79
2022/09/26 09:53:25;;;;;;;;;;;12.50;81.40;;;;;;5036808;28;19971;-79
2022/09/26 09:55:59;;;;;;;;;;;12.40;81.50;;;;;;5037578;28;20278;-78
2022/09/26 09:58:28;;;;;;;;;;;12.30;81.50;;;;;;5031932;28;20460;-77
2022/09/26 10:01:03;;;;;;;;;;;12.40;82.30;;;;;;5030704;28;19921;-77
2022/09/26 10:03:36;;;;;;;;;;;12.50;82.50;;;;;;5017744;28;20712;-78
2022/09/26 10:06:03;;;;;;;;;;;12.60;81.70;;;;;;5026492;28;19920;-78
2022/09/26 10:08:30;;;;;;;;;;;12.50;82.00;;;;;;5032027;28;19921;-78
2022/09/26 10:11:02;;;;;;;;;;;12.60;80.90;;;;;;5030840;28;20409;-77
2022/09/26 10:13:30;;;;;;;;;;;12.60;81.20;;;;;;5033205;28;19913;-78
2022/09/26 10:15:58;;;;;;;;;;;12.70;80.70;;;;;;5010743;28;19926;-80
2022/09/26 10:18:24;;;;;;;;;;;12.70;80.60;;;;;;5032777;28;19914;-79
2022/09/26 10:20:53;;;;;;;;;;;12.70;80.90;;;;;;5015879;28;19913;-79
2022/09/26 10:23:18;;;;;;;;;;;12.70;80.90;;;;;;5037123;28;19917;-79
2022/09/26 10:25:46;;;;;;;;;;;12.70;81.10;;;;;;5033547;28;20007;-80
2022/09/26 10:28:20;;;;;;;;;;;12.80;80.50;;;;;;5009313;28;19910;-80
2022/09/26 10:30:48;;;;;;;;;;;12.80;81.00;;;;;;5034168;28;20022;-81
2022/09/26 10:33:24;;;;;;;;;;;13.00;80.80;;;;;;5012951;28;19909;-80
2022/09/26 10:35:57;;;;;;;;;;;13.10;81.30;;;;;;5026545;28;20016;-81
2022/09/26 10:38:26;;;;;;;;;;;13.20;79.60;;;;;;5018897;28;19917;-80
2022/09/26 10:40:56;;;;;;;;;;;13.30;79.50;;;;;;5014521;28;19925;-79
2022/09/26 10:43:24;;;;;;;;;;;13.40;79.20;;;;;;5028139;28;19913;-81
2022/09/26 10:45:53;;;;;;;;;;;13.50;77.70;;;;;;5032447;28;19916;-81
2022/09/26 10:48:20;;;;;;;;;;;13.40;78.60;;;;;;5033197;28;19917;-80
2022/09/26 10:50:49;;;;;;;;;;;13.30;77.80;;;;;;5021927;28;20000;-80
2022/09/26 10:53:16;;;;;;;;;;;13.50;78.00;;;;;;5023626;28;20426;-81
2022/09/26 10:55:46;;;;;;;;;;;13.40;77.50;;;;;;5034558;28;19940;-80
2022/09/26 10:58:22;;;;;;;;;;;13.30;77.80;;;;;;5023402;28;19914;-81
2022/09/26 11:00:49;;;;;;;;;;;13.20;78.10;;;;;;5008016;28;19925;-79
2022/09/26 11:03:19;;;;;;;;;;;13.30;78.70;;;;;;5024910;28;19941;-80
2022/09/26 11:05:55;;;;;;;;;;;13.20;78.40;;;;;;5024394;28;19919;-79
2022/09/26 11:08:25;;;;;;;;;;;13.20;77.80;;;;;;5037756;28;19913;-77
2022/09/26 11:10:52;;;;;;;;;;;13.10;77.70;;;;;;5020101;28;19952;-77
2022/09/26 11:13:22;;;;;;;;;;;13.10;77.80;;;;;;5024033;28;19940;-76
2022/09/26 11:16:00;;;;;;;;;;;13.20;77.80;;;;;;5025256;28;20531;-75
2022/09/26 11:18:45;;;;;;;;;;;13.30;77.40;;;;;;5029834;28;19921;-77
2022/09/26 11:21:20;;;;;;;;;;;13.50;76.70;;;;;;4967754;28;19920;-76
2022/09/26 11:24:10;;;;;;;;;;;13.50;76.40;;;;;;5024849;28;19920;-77
2022/09/26 11:26:51;;;;;;;;;;;13.60;76.40;;;;;;5026292;28;20320;-77
2022/09/26 11:29:22;;;;;;;;;;;13.60;74.90;;;;;;5032864;28;19917;-77
2022/09/26 11:31:48;;;;;;;;;;;13.60;76.00;;;;;;5022525;28;20102;-78
2022/09/26 11:34:16;;;;;;;;;;;13.70;75.00;;;;;;5030924;28;19913;-78
2022/09/26 11:36:44;;;;;;;;;;;13.90;75.10;;;;;;5005502;28;19917;-77
2022/09/26 11:39:31;;;;;;;;;;;13.90;74.10;;;;;;5027409;28;19916;-77
2022/09/26 11:42:04;;;;;;;;;;;14.10;74.70;;;;;;5026535;28;19918;-77
2022/09/26 11:44:29;;;;;;;;;;;14.20;73.80;;;;;;5006249;28;20265;-77
2022/09/26 11:47:06;;;;;;;;;;;14.30;74.10;;;;;;5034162;28;19909;-76
2022/09/26 11:49:32;;;;;;;;;;;14.40;73.00;;;;;;4999278;28;20365;-78
2022/09/26 11:52:16;;;;;;;;;;;14.40;72.60;;;;;;5021983;28;19937;-76
2022/09/26 11:54:47;;;;;;;;;;;14.40;72.10;;;;;;5019860;28;19917;-79
2022/09/26 11:57:20;;;;;;;;;;;14.50;71.10;;;;;;5016937;28;19974;-79
2022/09/26 11:59:46;;;;;;;;;;;14.60;71.40;;;;;;5006134;28;19956;-77
2022/09/26 12:02:32;;;;;;;;;;;14.70;70.90;;;;;;5032004;28;19914;-78
2022/09/26 12:05:36;;;;;;;;;;;14.60;70.70;;;;;;5006746;28;20000;-78
2022/09/26 12:08:22;;;;;;;;;;;14.50;71.90;;;;;;4944148;28;19915;-78
2022/09/26 12:10:59;;;;;;;;;;;14.60;71.20;;;;;;4951869;28;19918;-78
2022/09/26 12:13:33;;;;;;;;;;;14.60;71.00;;;;;;4994147;28;19970;-78
2022/09/26 12:16:01;;;;;;;;;;;14.60;70.90;;;;;;5009817;28;20436;-78
2022/09/26 12:18:46;;;;;;;;;;;14.60;70.70;;;;;;5006718;28;19940;-78
2022/09/26 12:21:32;;;;;;;;;;;14.70;70.30;;;;;;4979683;28;19917;-78
2022/09/26 12:24:06;;;;;;;;;;;14.80;70.10;;;;;;5024458;28;20627;-78
2022/09/26 12:26:33;;;;;;;;;;;14.80;70.20;;;;;;5014131;28;19914;-78
2022/09/26 12:29:17;;;;;;;;;;;14.70;70.30;;;;;;5024777;28;19995;-77
2022/09/26 12:31:59;;;;;;;;;;;14.70;69.70;;;;;;5012548;28;20273;-78
2022/09/26 12:34:36;;;;;;;;;;;14.80;70.00;;;;;;5000736;28;20223;-77
2022/09/26 12:37:13;;;;;;;;;;;14.80;69.90;;;;;;5025247;28;21289;-78
2022/09/26 12:39:45;;;;;;;;;;;14.70;69.60;;;;;;5015608;28;19917;-79
2022/09/26 12:42:29;;;;;;;;;;;14.70;69.40;;;;;;5016484;28;19913;-79
2022/09/26 12:45:05;;;;;;;;;;;14.60;70.30;;;;;;5018400;28;19931;-80
2022/09/26 12:47:49;;;;;;;;;;;14.60;70.70;;;;;;5020731;28;19917;-79
2022/09/26 12:50:23;;;;;;;;;;;14.50;71.40;;;;;;5027974;28;20540;-79
2022/09/26 12:53:09;;;;;;;;;;;14.40;73.20;;;;;;5001772;28;19918;-79
2022/09/26 12:55:53;;;;;;;;;;;14.30;73.60;;;;;;5007921;28;19925;-79
2022/09/26 12:58:21;;;;;;;;;;;14.30;74.60;;;;;;5023595;28;20031;-79
2022/09/26 13:01:10;;;;;;;;;;;14.10;75.40;;;;;;5019605;28;20297;-79
2022/09/26 13:03:48;;;;;;;;;;;13.90;75.30;;;;;;5031187;28;19978;-78
2022/09/26 13:06:32;;;;;;;;;;;13.80;76.40;;;;;;5023509;28;19924;-78
2022/09/26 13:09:16;;;;;;;;;;;13.80;77.00;;;;;;5026046;28;20000;-79
2022/09/26 13:11:56;;;;;;;;;;;13.60;77.60;;;;;;5038411;28;20023;-78
2022/09/26 13:15:01;;;;;;;;;;;13.60;78.20;;;;;;5009958;28;20317;-79
2022/09/26 13:17:30;;;;;;;;;;;13.60;78.70;;;;;;4930359;29;20643;-80
2022/09/26 13:19:58;;;;;;;;;;;13.70;78.70;;;;;;4925949;29;19937;-80
2022/09/26 13:22:26;;;;;;;;;;;13.80;78.60;;;;;;4976972;28;20001;-79
2022/09/26 13:24:55;;;;;;;;;;;13.80;78.50;;;;;;5024200;28;19937;-80
2022/09/26 13:27:25;;;;;;;;;;;13.80;77.90;;;;;;5033379;28;19948;-80
2022/09/26 13:30:03;;;;;;;;;;;13.70;77.70;;;;;;5026871;28;19948;-79
2022/09/26 13:32:37;;;;;;;;;;;13.60;78.40;;;;;;5023173;28;19921;-78
2022/09/26 13:35:13;;;;;;;;;;;13.50;78.70;;;;;;5022248;28;20301;-78
2022/09/26 13:37:54;;;;;;;;;;;13.50;79.40;;;;;;5031265;28;19917;-79
2022/09/26 13:40:23;;;;;;;;;;;13.60;79.80;;;;;;5022819;28;19917;-78
2022/09/26 13:42:53;;;;;;;;;;;13.50;79.70;;;;;;5021559;28;19921;-79
2022/09/26 13:45:29;;;;;;;;;;;13.50;81.10;;;;;;5028515;28;20000;-78
2022/09/26 13:47:59;;;;;;;;;;;13.50;80.70;;;;;;5019078;28;19918;-78
2022/09/26 13:50:40;;;;;;;;;;;13.60;79.50;;;;;;5012600;28;19921;-78
2022/09/26 13:53:14;;;;;;;;;;;13.70;79.40;;;;;;5025121;28;19963;-79
2022/09/26 13:55:42;;;;;;;;;;;13.80;79.10;;;;;;5018558;28;19985;-79
2022/09/26 13:58:20;;;;;;;;;;;13.70;79.50;;;;;;5022328;28;19921;-79
2022/09/26 14:00:52;;;;;;;;;;;13.70;78.60;;;;;;5029432;28;19913;-78
2022/09/26 14:03:18;;;;;;;;;;;13.70;79.00;;;;;;5004097;28;19944;-78
2022/09/26 14:05:44;;;;;;;;;;;13.80;79.40;;;;;;5031978;28;19979;-79
2022/09/26 14:11:31;;;;;;;;;;;14.00;78.10;;;;;;5026334;28;20005;-79
2022/09/26 14:14:16;;;;;;;;;;;13.80;78.40;;;;;;5021292;28;20412;-79
2022/09/26 14:16:42;;;;;;;;;;;13.70;78.50;;;;;;5005868;28;19917;-78
2022/09/26 14:19:16;;;;;;;;;;;13.70;78.10;;;;;;5017635;28;19914;-78
2022/09/26 14:22:02;;;;;;;;;;;13.60;78.50;;;;;;5019904;28;19914;-78
2022/09/26 14:24:30;;;;;;;;;;;13.50;78.50;;;;;;5024026;28;19921;-79
2022/09/26 14:27:23;;;;;;;;;;;13.50;79.50;;;;;;5016316;28;19909;-79
2022/09/26 14:29:57;;;;;;;;;;;13.50;79.20;;;;;;5008982;28;19947;-79
2022/09/26 14:32:42;;;;;;;;;;;13.60;79.00;;;;;;5022698;28;19920;-84
2022/09/26 14:35:15;;;;;;;;;;;13.60;79.10;;;;;;5048514;23;19933;-80
2022/09/26 14:37:42;;;;;;;;;;;13.70;78.30;;;;;;5015719;28;19917;-80
2022/09/26 14:40:19;;;;;;;;;;;13.70;78.90;;;;;;5046268;28;20331;-80
2022/09/26 14:42:45;;;;;;;;;;;13.60;78.80;;;;;;5029636;28;19920;-80
2022/09/26 14:45:16;;;;;;;;;;;13.50;78.10;;;;;;5024853;28;19917;-81
2022/09/26 14:47:44;;;;;;;;;;;13.50;79.20;;;;;;5026166;28;19928;-81